Terminal Aerodrome Forecast
Issued by NWS

Home | Current Version | Previous Version | Text Only | Print | Product List | Glossary On
Versions: 1 2 3 4 5 6 7 8 9 10
000
FTUS46 KSEW 280500 RRA
TAFCLM
TAF
KCLM 280535Z 2806/2906 27010KT P6SM FEW060
     FM281100 25009KT P6SM OVC020
     FM281900 VRB05KT P6SM OVC020
     FM290000 01006KT P6SM OVC050=

USA.gov is the U.S. government's official web portal to all federal, state and local government web resources and services.